Time;durP1;ratioP1;P1;durP2;ratioP2;P2;SDS_P1;SDS_P2;PMS_P1;PMS_P2;Temp;Humidity;BMP_temperature;BMP_pressure;BME280_temperature;BME280_humidity;BME280_pressure;Samples;Min_cycle;Max_cycle;Signal;HPM_P1;HPM_P2
2023/05/31 00:00:46;;;;;;;5.13;2.03;;;18.10;60.70;;;;;;6324181;28;20413;-73
2023/05/31 00:03:48;;;;;;;6.55;2.17;;;18.10;60.70;;;;;;6324110;28;20066;-74
2023/05/31 00:06:50;;;;;;;6.03;2.42;;;18.00;60.70;;;;;;6324527;28;20131;-74
2023/05/31 00:09:54;;;;;;;9.15;2.38;;;18.00;60.70;;;;;;6323860;28;20047;-73
2023/05/31 00:12:56;;;;;;;7.18;2.40;;;17.70;60.20;;;;;;6324015;28;20051;-73
2023/05/31 00:16:01;;;;;;;6.22;2.40;;;18.00;60.10;;;;;;6324449;28;20055;-74
2023/05/31 00:19:03;;;;;;;5.40;2.33;;;17.90;60.40;;;;;;6323944;28;20085;-74
2023/05/31 00:22:06;;;;;;;4.93;2.25;;;17.70;61.10;;;;;;6324019;28;20048;-75
2023/05/31 00:25:09;;;;;;;7.13;2.08;;;17.80;59.50;;;;;;6323963;28;20055;-75
2023/05/31 00:28:11;;;;;;;5.70;2.00;;;17.90;60.00;;;;;;6323851;28;20052;-73
2023/05/31 00:31:13;;;;;;;5.95;2.50;;;17.70;59.40;;;;;;6323733;28;20052;-73
2023/05/31 00:34:15;;;;;;;4.63;2.00;;;17.70;60.50;;;;;;6323524;28;20501;-75
2023/05/31 00:37:17;;;;;;;5.72;1.98;;;17.90;59.80;;;;;;6323435;28;20478;-74
2023/05/31 00:40:21;;;;;;;5.50;2.08;;;17.70;59.40;;;;;;6323183;28;20413;-74
2023/05/31 00:43:23;;;;;;;6.25;2.10;;;17.90;59.30;;;;;;6323266;28;20065;-76
2023/05/31 00:46:29;;;;;;;6.30;2.00;;;17.60;58.10;;;;;;6323754;28;20051;-74
2023/05/31 00:49:31;;;;;;;5.22;2.40;;;17.40;58.30;;;;;;6321483;28;20507;-75
2023/05/31 00:52:34;;;;;;;5.57;2.00;;;17.30;58.70;;;;;;6323063;28;20051;-76
2023/05/31 00:55:40;;;;;;;6.35;2.28;;;17.40;59.10;;;;;;6321630;28;20052;-75
2023/05/31 00:58:42;;;;;;;6.80;2.13;;;17.70;59.00;;;;;;6322972;28;20058;-74
2023/05/31 01:01:44;;;;;;;5.32;2.17;;;17.70;58.40;;;;;;6322777;28;20482;-74
2023/05/31 01:04:47;;;;;;;5.97;2.20;;;17.60;59.50;;;;;;6322874;28;20044;-74
2023/05/31 01:07:49;;;;;;;7.35;2.25;;;17.40;58.30;;;;;;6322873;28;20131;-74
2023/05/31 01:10:55;;;;;;;5.35;1.90;;;17.50;59.10;;;;;;6322454;28;20048;-74
2023/05/31 01:14:07;;;;;;;4.43;2.05;;;17.60;59.00;;;;;;6322505;28;20048;-74
2023/05/31 01:17:22;;;;;;;4.10;1.80;;;17.70;58.10;;;;;;6322564;28;20044;-73
2023/05/31 01:20:25;;;;;;;6.60;2.47;;;17.30;59.30;;;;;;6322411;28;20064;-75
2023/05/31 01:23:45;;;;;;;8.25;2.20;;;17.00;59.10;;;;;;6322505;28;20044;-74
2023/05/31 01:26:50;;;;;;;5.35;1.80;;;17.10;59.90;;;;;;6322406;28;20048;-74
2023/05/31 01:29:55;;;;;;;4.97;2.03;;;17.40;59.60;;;;;;6322523;28;20044;-74
2023/05/31 01:33:00;;;;;;;5.43;2.03;;;17.40;58.50;;;;;;6322413;28;20045;-74
2023/05/31 01:36:03;;;;;;;4.97;2.20;;;17.50;58.50;;;;;;6323624;28;20045;-73
2023/05/31 01:39:06;;;;;;;5.80;2.30;;;17.50;58.50;;;;;;6337116;28;20056;-73
2023/05/31 01:42:11;;;;;;;7.07;2.25;;;17.60;58.20;;;;;;6334102;28;20040;-74
2023/05/31 01:45:15;;;;;;;5.75;2.13;;;17.50;58.30;;;;;;6335526;28;20044;-74
2023/05/31 01:48:17;;;;;;;7.35;2.17;;;17.50;58.50;;;;;;6334593;28;20059;-75
2023/05/31 01:51:21;;;;;;;5.55;2.22;;;17.40;60.60;;;;;;6323573;28;20060;-75
2023/05/31 01:54:23;;;;;;;6.82;2.40;;;16.90;63.10;;;;;;6321951;28;20379;-76
2023/05/31 01:57:28;;;;;;;5.20;2.10;;;16.90;63.20;;;;;;6322191;28;20078;-75
2023/05/31 02:00:31;;;;;;;5.25;2.22;;;17.00;64.40;;;;;;6322119;28;20056;-75
2023/05/31 02:03:33;;;;;;;5.73;2.43;;;16.90;64.70;;;;;;6321941;28;20051;-73
2023/05/31 02:06:37;;;;;;;5.00;2.10;;;17.10;63.50;;;;;;6321550;28;20306;-73
2023/05/31 02:09:39;;;;;;;6.13;2.22;;;17.00;64.10;;;;;;6323967;28;20051;-73
2023/05/31 02:12:42;;;;;;;6.40;2.30;;;17.10;64.20;;;;;;6326827;28;20405;-75
2023/05/31 02:15:44;;;;;;;4.95;2.17;;;17.20;63.80;;;;;;6327015;28;20486;-75
2023/05/31 02:18:46;;;;;;;6.45;2.20;;;17.10;63.60;;;;;;6326541;28;20052;-74
2023/05/31 02:21:48;;;;;;;5.78;2.20;;;17.10;64.40;;;;;;6326952;28;20060;-74
2023/05/31 02:24:50;;;;;;;4.90;1.98;;;17.10;64.50;;;;;;6326495;28;20058;-75
2023/05/31 02:27:53;;;;;;;5.70;2.47;;;17.10;64.40;;;;;;6326591;28;20044;-74
2023/05/31 02:30:56;;;;;;;5.03;2.05;;;16.90;63.60;;;;;;6326335;28;20058;-76
2023/05/31 02:33:58;;;;;;;6.47;2.27;;;16.60;64.90;;;;;;6326672;28;20425;-76
2023/05/31 02:37:00;;;;;;;5.03;2.10;;;16.70;65.40;;;;;;6327758;28;20305;-75
2023/05/31 02:40:06;;;;;;;4.90;2.10;;;16.70;65.10;;;;;;6327070;28;20059;-75
2023/05/31 02:43:10;;;;;;;5.25;2.05;;;16.40;65.70;;;;;;6326157;28;20379;-75
2023/05/31 02:46:11;;;;;;;5.25;2.20;;;16.50;64.50;;;;;;6325820;28;20497;-75
2023/05/31 02:49:14;;;;;;;4.78;2.05;;;16.30;66.90;;;;;;6325840;28;20058;-75
2023/05/31 02:52:16;;;;;;;5.50;2.15;;;16.10;68.60;;;;;;6325905;28;20477;-72
2023/05/31 02:55:17;;;;;;;5.15;2.50;;;16.20;68.10;;;;;;6328742;28;20056;-75
2023/05/31 02:58:21;;;;;;;5.10;2.08;;;16.30;68.50;;;;;;6330382;28;20058;-75
2023/05/31 03:01:23;;;;;;;5.40;2.17;;;16.30;68.30;;;;;;6334168;28;20055;-74
2023/05/31 03:04:26;;;;;;;4.53;2.17;;;16.20;67.90;;;;;;6333727;28;20054;-77
2023/05/31 03:07:28;;;;;;;5.00;2.03;;;16.10;67.80;;;;;;6336951;28;20134;-74
2023/05/31 03:10:30;;;;;;;4.30;2.13;;;16.10;68.70;;;;;;6329306;28;20482;-74
2023/05/31 03:13:33;;;;;;;6.25;2.10;;;16.10;67.10;;;;;;6325662;28;20048;-76
2023/05/31 03:16:35;;;;;;;5.18;2.20;;;16.10;68.10;;;;;;6325434;28;20040;-74
2023/05/31 03:19:37;;;;;;;6.90;2.40;;;15.60;67.50;;;;;;6325851;28;20071;-74
2023/05/31 03:22:40;;;;;;;6.80;2.40;;;15.70;68.60;;;;;;6344493;28;20055;-74
2023/05/31 03:25:41;;;;;;;6.03;2.45;;;15.90;68.30;;;;;;6346840;28;20097;-75
2023/05/31 03:28:45;;;;;;;4.90;2.08;;;15.90;68.20;;;;;;6347148;28;20044;-76
2023/05/31 03:31:49;;;;;;;4.95;2.33;;;15.90;68.40;;;;;;6328110;28;20198;-74
2023/05/31 03:34:51;;;;;;;4.85;1.85;;;15.90;67.50;;;;;;6324753;28;20153;-74
2023/05/31 03:37:53;;;;;;;5.82;2.10;;;15.90;66.90;;;;;;6324649;28;20040;-74
2023/05/31 03:40:55;;;;;;;5.53;2.30;;;15.90;68.50;;;;;;6324540;28;20432;-74
2023/05/31 03:43:59;;;;;;;6.07;2.00;;;15.80;67.90;;;;;;6324534;28;20397;-74
2023/05/31 03:47:00;;;;;;;5.32;2.15;;;15.90;65.10;;;;;;6324270;28;20374;-75
2023/05/31 03:50:04;;;;;;;7.22;2.50;;;15.90;64.70;;;;;;6324545;28;20412;-73
2023/05/31 03:53:06;;;;;;;6.43;2.10;;;15.90;68.50;;;;;;6324861;28;20111;-76
2023/05/31 03:56:08;;;;;;;7.43;2.50;;;15.80;66.10;;;;;;6324267;28;20397;-73
2023/05/31 03:59:11;;;;;;;6.68;2.00;;;15.80;67.10;;;;;;6324545;28;20051;-74
2023/05/31 04:02:13;;;;;;;7.28;2.08;;;15.80;65.60;;;;;;6324427;28;20058;-74
2023/05/31 04:05:15;;;;;;;5.00;2.20;;;15.70;65.90;;;;;;6324083;28;20044;-76
2023/05/31 04:08:17;;;;;;;5.68;2.33;;;15.70;67.60;;;;;;6324237;28;20048;-75
2023/05/31 04:11:19;;;;;;;5.45;2.20;;;15.70;67.20;;;;;;6323920;28;20092;-74
2023/05/31 04:14:22;;;;;;;15.88;8.80;;;15.70;67.50;;;;;;6323972;28;20043;-75
2023/05/31 04:17:24;;;;;;;6.32;2.90;;;15.60;67.80;;;;;;6323911;28;20044;-74
2023/05/31 04:20:25;;;;;;;6.05;2.20;;;15.50;70.10;;;;;;6324167;28;20051;-74
2023/05/31 04:23:27;;;;;;;5.28;2.42;;;15.40;67.90;;;;;;6323971;28;20044;-74
2023/05/31 04:26:32;;;;;;;7.32;2.40;;;15.40;67.40;;;;;;6324371;28;20139;-76
2023/05/31 04:29:35;;;;;;;6.63;2.28;;;15.40;68.20;;;;;;6323828;28;20135;-74
2023/05/31 04:32:37;;;;;;;6.80;2.22;;;15.50;68.40;;;;;;6322830;28;20048;-75
2023/05/31 04:35:40;;;;;;;5.40;2.22;;;15.50;67.90;;;;;;6324172;28;20040;-74
2023/05/31 04:38:42;;;;;;;7.03;2.37;;;15.30;68.90;;;;;;6323809;28;20081;-73
2023/05/31 04:41:44;;;;;;;6.20;2.22;;;15.40;70.30;;;;;;6324057;28;20103;-76
2023/05/31 04:44:49;;;;;;;5.30;1.92;;;15.40;70.60;;;;;;6323560;28;20401;-75
2023/05/31 04:47:51;;;;;;;5.88;2.10;;;15.10;70.40;;;;;;6323646;28;20056;-73
2023/05/31 04:50:54;;;;;;;6.05;2.50;;;15.30;71.30;;;;;;6323500;28;20497;-75
2023/05/31 04:53:56;;;;;;;6.25;2.28;;;15.00;70.70;;;;;;6323722;28;20044;-77
2023/05/31 04:56:59;;;;;;;4.60;2.25;;;15.10;69.40;;;;;;6323074;28;20048;-75
2023/05/31 05:00:08;;;;;;;7.18;2.30;;;15.20;68.20;;;;;;6323431;28;20100;-74
2023/05/31 05:03:10;;;;;;;5.07;2.10;;;15.30;68.50;;;;;;6323799;28;20056;-74
2023/05/31 05:06:16;;;;;;;4.97;2.08;;;15.60;68.50;;;;;;6324061;28;20044;-73
2023/05/31 05:09:18;;;;;;;6.88;2.00;;;15.40;68.10;;;;;;6323428;28;20044;-75
2023/05/31 05:12:20;;;;;;;6.97;2.60;;;15.50;68.30;;;;;;6323776;28;20083;-75
2023/05/31 05:15:23;;;;;;;6.72;2.40;;;15.50;69.10;;;;;;6323105;28;20159;-75
2023/05/31 05:18:26;;;;;;;8.18;2.55;;;15.40;68.70;;;;;;6324897;28;20047;-75
2023/05/31 05:21:28;;;;;;;6.28;2.25;;;15.50;68.40;;;;;;6331750;28;20047;-75
2023/05/31 05:24:30;;;;;;;6.65;2.70;;;15.70;67.90;;;;;;6328208;28;20130;-76
2023/05/31 05:27:32;;;;;;;6.90;2.38;;;15.50;67.40;;;;;;6327865;28;20044;-74
2023/05/31 05:30:35;;;;;;;4.95;2.38;;;15.50;68.40;;;;;;6327712;28;20409;-74
2023/05/31 05:33:37;;;;;;;5.68;2.28;;;15.70;67.60;;;;;;6324828;28;20505;-74
2023/05/31 05:36:39;;;;;;;6.10;2.08;;;15.70;68.20;;;;;;6323224;28;20474;-76
2023/05/31 05:39:41;;;;;;;5.65;2.10;;;15.90;67.80;;;;;;6322932;28;20463;-73
2023/05/31 05:42:43;;;;;;;7.07;2.50;;;16.00;67.40;;;;;;6323101;28;20048;-74
2023/05/31 05:45:46;;;;;;;7.05;2.35;;;16.10;67.10;;;;;;6323176;28;20408;-73
2023/05/31 05:48:48;;;;;;;7.70;2.40;;;16.10;67.70;;;;;;6322806;28;20052;-74
2023/05/31 05:51:50;;;;;;;5.90;2.03;;;16.20;66.90;;;;;;6324012;28;20047;-74
2023/05/31 05:54:52;;;;;;;12.15;6.35;;;16.10;67.30;;;;;;6323462;28;20048;-75
2023/05/31 05:57:55;;;;;;;6.10;2.30;;;16.20;67.80;;;;;;6322806;28;20048;-74
2023/05/31 06:00:59;;;;;;;5.35;2.38;;;16.30;67.90;;;;;;6322250;28;20048;-74
2023/05/31 06:04:00;;;;;;;5.30;2.10;;;16.20;68.00;;;;;;6322208;28;20110;-75
2023/05/31 06:07:02;;;;;;;4.85;2.03;;;16.30;67.80;;;;;;6322191;28;20051;-74
2023/05/31 06:10:06;;;;;;;5.03;1.98;;;16.30;68.00;;;;;;6322090;28;20051;-74
2023/05/31 06:13:08;;;;;;;6.03;2.10;;;16.30;67.80;;;;;;6322564;28;20044;-74
2023/05/31 06:16:14;;;;;;;7.93;2.20;;;16.30;67.70;;;;;;6322371;28;20401;-74
2023/05/31 06:19:16;;;;;;;7.60;2.20;;;16.30;68.20;;;;;;6322227;28;20430;-73
2023/05/31 06:22:17;;;;;;;5.75;2.28;;;16.50;67.70;;;;;;6322227;28;20059;-74
2023/05/31 06:25:20;;;;;;;8.00;2.30;;;16.70;67.20;;;;;;6322269;28;20047;-76
2023/05/31 06:28:22;;;;;;;6.18;2.17;;;16.60;67.10;;;;;;6322107;28;20044;-75
2023/05/31 06:31:25;;;;;;;5.90;2.33;;;16.70;66.80;;;;;;6327825;28;20048;-74
2023/05/31 06:34:27;;;;;;;9.48;2.22;;;16.80;67.50;;;;;;6335415;28;20055;-77
2023/05/31 06:37:29;;;;;;;8.57;2.65;;;16.80;67.80;;;;;;6338930;28;20051;-75
2023/05/31 06:40:31;;;;;;;7.00;2.20;;;16.90;67.50;;;;;;6330600;28;20044;-75
2023/05/31 06:43:33;;;;;;;7.93;2.10;;;16.90;67.90;;;;;;6324871;28;20473;-74
2023/05/31 06:46:36;;;;;;;7.57;2.35;;;16.90;67.70;;;;;;6321773;28;20048;-74
2023/05/31 06:49:39;;;;;;;7.28;1.77;;;17.00;67.10;;;;;;6321754;28;20047;-75
2023/05/31 06:52:41;;;;;;;8.73;2.50;;;17.10;67.80;;;;;;6321617;28;20052;-74
2023/05/31 06:55:43;;;;;;;4.65;1.95;;;17.30;68.00;;;;;;6323789;28;20044;-75
2023/05/31 06:58:46;;;;;;;6.32;2.13;;;17.40;67.30;;;;;;6326338;28;20048;-74
2023/05/31 07:01:52;;;;;;;6.50;2.60;;;17.50;67.70;;;;;;6324925;28;20053;-73
2023/05/31 07:04:54;;;;;;;5.25;2.45;;;17.60;68.10;;;;;;6326585;28;20051;-75
2023/05/31 07:07:55;;;;;;;5.20;2.53;;;17.70;66.80;;;;;;6326104;28;20056;-73
2023/05/31 07:10:57;;;;;;;6.25;2.55;;;17.60;66.30;;;;;;6326093;28;20052;-74
2023/05/31 07:14:01;;;;;;;6.13;2.70;;;17.70;65.90;;;;;;6325766;28;20063;-74
2023/05/31 07:17:06;;;;;;;;;;;17.80;65.50;;;;;;6326095;28;20048;-74
2023/05/31 07:20:09;;;;;;;8.13;2.25;;;17.90;66.00;;;;;;6326140;28;19920;-75
2023/05/31 07:23:11;;;;;;;7.05;2.33;;;17.90;66.00;;;;;;6325637;28;20059;-76
2023/05/31 07:26:14;;;;;;;6.50;2.15;;;18.00;65.90;;;;;;6325477;28;20048;-74
2023/05/31 07:29:16;;;;;;;8.68;2.55;;;18.20;66.30;;;;;;6325518;28;20527;-75
2023/05/31 07:32:19;;;;;;;6.22;2.25;;;18.30;65.50;;;;;;6325469;28;20052;-73
2023/05/31 07:35:21;;;;;;;6.72;2.35;;;18.40;65.30;;;;;;6325620;28;20050;-73
2023/05/31 07:38:23;;;;;;;9.65;2.88;;;18.50;65.50;;;;;;6325415;28;20401;-74
2023/05/31 07:41:25;;;;;;;7.20;2.40;;;18.60;65.90;;;;;;6325220;28;20040;-75
2023/05/31 07:44:27;;;;;;;9.25;2.45;;;18.60;64.30;;;;;;6325475;28;20047;-75
2023/05/31 07:47:30;;;;;;;6.45;2.38;;;18.70;63.80;;;;;;6324988;28;20135;-73
2023/05/31 07:50:32;;;;;;;5.18;2.20;;;18.80;63.00;;;;;;6325274;28;20159;-74
2023/05/31 07:53:34;;;;;;;9.80;2.67;;;18.90;63.80;;;;;;6325435;28;20048;-74
2023/05/31 07:56:36;;;;;;;7.35;2.72;;;18.90;63.50;;;;;;6325027;28;20059;-74
2023/05/31 07:59:38;;;;;;;6.75;2.42;;;19.00;62.80;;;;;;6324701;28;20415;-73
2023/05/31 08:02:41;;;;;;;6.60;2.67;;;19.00;62.30;;;;;;6324594;28;20055;-73
2023/05/31 08:05:43;;;;;;;5.50;2.30;;;19.10;61.40;;;;;;6324676;28;20052;-73
2023/05/31 08:08:46;;;;;;;7.88;2.75;;;19.20;62.10;;;;;;6324660;28;20130;-74
2023/05/31 08:11:47;;;;;;;8.80;2.63;;;19.30;62.00;;;;;;6324493;28;20044;-74
2023/05/31 08:14:49;;;;;;;7.35;2.50;;;19.30;61.00;;;;;;6324569;28;20048;-74
2023/05/31 08:17:53;;;;;;;6.63;2.30;;;19.40;61.50;;;;;;6325948;28;20089;-74
2023/05/31 08:20:55;;;;;;;5.32;2.00;;;19.50;61.50;;;;;;6325961;28;20052;-76
2023/05/31 08:23:57;;;;;;;7.82;2.88;;;19.60;61.10;;;;;;6325182;28;20055;-74
2023/05/31 08:26:59;;;;;;;7.57;2.35;;;19.70;60.00;;;;;;6324340;28;20501;-75
2023/05/31 08:30:01;;;;;;;8.75;2.72;;;19.80;59.60;;;;;;6323801;28;20040;-74
2023/05/31 08:33:05;;;;;;;8.75;2.55;;;19.90;59.00;;;;;;6323988;28;20048;-73
2023/05/31 08:36:07;;;;;;;7.53;2.72;;;19.90;59.60;;;;;;6323992;28;20129;-75
2023/05/31 08:39:10;;;;;;;5.35;2.42;;;20.00;59.70;;;;;;6322799;28;20055;-74
2023/05/31 08:42:19;;;;;;;7.03;2.70;;;20.10;59.70;;;;;;6323818;28;20431;-74
2023/05/31 08:45:22;;;;;;;6.68;2.50;;;20.20;61.00;;;;;;6323726;28;20048;-74
2023/05/31 08:48:31;;;;;;;7.68;2.42;;;20.30;59.90;;;;;;6324198;28;20048;-73
2023/05/31 08:51:36;;;;;;;7.05;2.40;;;20.40;59.70;;;;;;6323680;28;20502;-75
2023/05/31 08:54:38;;;;;;;6.57;2.45;;;20.40;58.90;;;;;;6324028;28;20390;-76
2023/05/31 08:57:41;;;;;;;6.50;2.33;;;20.50;59.50;;;;;;6323742;28;20123;-76
2023/05/31 09:00:45;;;;;;;6.83;2.47;;;20.50;58.90;;;;;;6323574;28;20486;-76
2023/05/31 09:03:48;;;;;;;8.38;3.05;;;20.50;58.60;;;;;;6324060;28;20047;-74
2023/05/31 09:06:51;;;;;;;6.85;2.40;;;20.50;57.80;;;;;;6323171;28;20081;-74
2023/05/31 09:09:53;;;;;;;7.20;2.75;;;20.50;57.80;;;;;;6323404;28;20478;-74
2023/05/31 09:12:55;;;;;;;6.55;2.35;;;20.60;57.50;;;;;;6323100;28;20056;-76
2023/05/31 09:15:58;;;;;;;6.07;2.42;;;20.70;58.70;;;;;;6323400;28;20056;-73
2023/05/31 09:19:06;;;;;;;12.32;2.70;;;20.80;59.70;;;;;;6322760;28;20044;-75
2023/05/31 09:22:08;;;;;;;7.45;2.20;;;20.80;58.20;;;;;;6324079;28;20047;-74
2023/05/31 09:25:10;;;;;;;7.35;2.15;;;20.80;57.60;;;;;;6323688;28;20047;-74
2023/05/31 09:28:12;;;;;;;7.22;2.42;;;20.80;58.40;;;;;;6323564;28;20048;-75
2023/05/31 09:31:17;;;;;;;10.52;2.78;;;20.90;58.30;;;;;;6323365;28;20489;-74
2023/05/31 09:34:29;;;;;;;8.13;2.58;;;21.00;58.80;;;;;;6322610;28;20170;-73
2023/05/31 09:37:31;;;;;;;6.20;2.63;;;21.10;58.50;;;;;;6322884;28;20040;-74
2023/05/31 09:40:34;;;;;;;7.72;2.60;;;21.20;58.30;;;;;;6322880;28;20044;-76
2023/05/31 09:43:40;;;;;;;7.22;2.60;;;21.20;58.50;;;;;;6323868;28;20040;-74
2023/05/31 09:46:42;;;;;;;7.20;2.40;;;21.30;57.80;;;;;;6323919;28;20055;-74
2023/05/31 09:49:47;;;;;;;11.05;2.72;;;21.30;56.30;;;;;;6344351;28;20055;-74
2023/05/31 09:52:56;;;;;;;7.53;2.85;;;21.40;57.70;;;;;;6345907;28;20056;-75
2023/05/31 09:55:59;;;;;;;7.15;2.28;;;21.50;57.90;;;;;;6346767;28;20062;-75
2023/05/31 09:59:03;;;;;;;5.93;2.33;;;21.50;57.30;;;;;;6323889;28;20040;-75
2023/05/31 10:02:05;;;;;;;7.68;2.33;;;21.50;57.20;;;;;;6321970;28;20052;-74
2023/05/31 10:05:10;;;;;;;7.38;2.42;;;21.60;56.30;;;;;;6322088;28;20044;-73
2023/05/31 10:08:12;;;;;;;7.78;2.28;;;21.60;56.20;;;;;;6322491;28;20040;-74
2023/05/31 10:11:18;;;;;;;5.82;2.10;;;21.70;56.90;;;;;;6322154;28;20048;-74
2023/05/31 10:14:26;;;;;;;7.90;2.33;;;21.70;56.50;;;;;;6322385;28;20056;-73
2023/05/31 10:17:31;;;;;;;7.53;2.70;;;21.80;56.50;;;;;;6322068;28;20456;-74
2023/05/31 10:20:41;;;;;;;7.70;2.30;;;21.90;57.00;;;;;;6322316;28;20053;-75
2023/05/31 10:23:46;;;;;;;6.85;2.33;;;21.90;54.80;;;;;;6322155;28;20064;-74
2023/05/31 10:27:00;;;;;;;14.77;8.52;;;21.90;55.20;;;;;;6320851;28;20075;-74
2023/05/31 10:30:04;;;;;;;8.95;2.67;;;22.00;55.20;;;;;;6323062;28;20052;-74
2023/05/31 10:33:08;;;;;;;5.82;2.22;;;22.00;53.80;;;;;;6327132;28;20560;-74
2023/05/31 10:36:11;;;;;;;6.47;2.20;;;22.10;54.00;;;;;;6326725;28;20048;-76
2023/05/31 10:39:23;;;;;;;6.00;2.25;;;22.00;52.90;;;;;;6327113;28;20055;-73
2023/05/31 10:42:37;;;;;;;6.90;2.50;;;22.10;53.30;;;;;;6326775;28;20052;-73
2023/05/31 10:45:41;;;;;;;9.05;2.53;;;22.10;53.00;;;;;;6326476;28;20512;-73
2023/05/31 10:48:51;;;;;;;6.28;2.42;;;22.10;53.50;;;;;;6326781;28;20052;-74
2023/05/31 10:51:54;;;;;;;11.95;2.72;;;22.30;53.90;;;;;;6326585;28;20047;-73
2023/05/31 10:55:17;;;;;;;6.32;2.20;;;22.30;53.50;;;;;;6326205;28;20074;-73
2023/05/31 10:58:31;;;;;;;6.43;2.00;;;22.30;52.50;;;;;;6326056;28;20052;-72
2023/05/31 11:01:36;;;;;;;6.65;2.20;;;22.30;52.30;;;;;;6326297;28;20048;-74
2023/05/31 11:04:39;;;;;;;5.78;2.30;;;22.40;52.30;;;;;;6326388;28;20062;-74
2023/05/31 11:07:42;;;;;;;5.03;2.00;;;22.40;52.90;;;;;;6326011;28;20051;-75
2023/05/31 11:10:44;;;;;;;5.25;2.17;;;22.40;51.90;;;;;;6325981;28;20055;-75
2023/05/31 11:14:00;;;;;;;7.18;2.13;;;22.50;51.90;;;;;;6325857;28;20131;-74
2023/05/31 11:17:16;;;;;;;5.35;2.00;;;22.50;52.50;;;;;;6325921;28;20136;-75
2023/05/31 11:20:19;;;;;;;4.75;2.03;;;22.60;52.80;;;;;;6325803;28;20044;-75
2023/05/31 11:23:34;;;;;;;5.35;2.10;;;22.60;51.50;;;;;;6325798;28;20051;-76
2023/05/31 11:26:52;;;;;;;6.50;2.58;;;22.70;51.70;;;;;;6325425;28;20052;-74
2023/05/31 11:30:01;;;;;;;6.40;2.25;;;22.80;51.50;;;;;;6325718;28;20044;-73
2023/05/31 11:33:03;;;;;;;4.70;2.08;;;22.90;51.50;;;;;;6325387;28;20051;-74
2023/05/31 11:36:08;;;;;;;7.65;2.17;;;22.90;50.90;;;;;;6325491;28;20159;-74
2023/05/31 11:39:12;;;;;;;5.68;2.05;;;23.00;51.50;;;;;;6325957;28;20052;-75
2023/05/31 11:42:15;;;;;;;7.15;3.40;;;23.10;50.40;;;;;;6325587;28;20055;-74
2023/05/31 11:45:18;;;;;;;7.57;2.03;;;23.10;51.20;;;;;;6325180;28;20558;-74
2023/05/31 11:48:39;;;;;;;5.90;2.10;;;23.20;49.60;;;;;;6325315;28;20036;-76
2023/05/31 11:51:44;;;;;;;4.40;2.00;;;23.30;49.80;;;;;;6324877;28;20044;-74
2023/05/31 11:54:49;;;;;;;5.53;1.85;;;23.50;49.10;;;;;;6325455;28;20048;-73
2023/05/31 11:57:53;;;;;;;6.43;2.10;;;23.50;48.10;;;;;;6324626;28;20052;-73
2023/05/31 12:01:01;;;;;;;5.65;1.90;;;23.60;47.80;;;;;;6324756;28;20154;-73
2023/05/31 12:04:03;;;;;;;6.72;1.92;;;23.60;48.20;;;;;;6324828;28;20043;-73
2023/05/31 12:07:07;;;;;;;7.57;2.03;;;23.60;47.20;;;;;;6324833;28;20048;-74
2023/05/31 12:10:13;;;;;;;6.47;2.33;;;23.80;47.00;;;;;;6324449;28;20075;-75
2023/05/31 12:13:17;;;;;;;7.40;2.10;;;23.80;48.20;;;;;;6324421;28;20059;-74
2023/05/31 12:16:19;;;;;;;5.80;2.25;;;23.90;48.40;;;;;;6324352;28;20071;-74
2023/05/31 12:19:22;;;;;;;6.20;2.05;;;24.10;49.60;;;;;;6324392;28;20047;-73
2023/05/31 12:22:24;;;;;;;5.63;1.87;;;24.20;48.40;;;;;;6324270;28;20486;-74
2023/05/31 12:25:29;;;;;;;5.57;2.03;;;24.30;48.50;;;;;;6326062;28;20716;-74
2023/05/31 12:28:31;;;;;;;7.13;2.42;;;24.40;47.40;;;;;;6332398;28;20055;-75
2023/05/31 12:31:37;;;;;;;6.57;2.30;;;24.40;46.50;;;;;;6330833;28;20138;-74
2023/05/31 12:34:40;;;;;;;6.47;2.03;;;24.60;48.50;;;;;;6328004;28;20095;-76
2023/05/31 12:37:42;;;;;;;8.25;2.05;;;24.60;47.80;;;;;;6325069;28;20052;-75
2023/05/31 12:40:45;;;;;;;5.93;2.10;;;24.60;46.70;;;;;;6324010;28;20044;-74
2023/05/31 12:43:47;;;;;;;6.53;1.90;;;24.80;48.00;;;;;;6323898;28;20055;-75
2023/05/31 12:46:51;;;;;;;5.30;1.95;;;25.00;47.60;;;;;;6323670;28;20052;-73
2023/05/31 12:49:52;;;;;;;5.30;2.25;;;25.20;48.80;;;;;;6323603;28;20048;-74
2023/05/31 12:52:57;;;;;;;10.05;2.83;;;25.20;46.40;;;;;;6323093;28;20058;-74
2023/05/31 12:56:00;;;;;;;5.85;2.17;;;25.30;46.70;;;;;;6323532;28;20070;-74
2023/05/31 12:59:02;;;;;;;7.38;1.80;;;25.30;46.00;;;;;;6323576;28;20040;-75
2023/05/31 13:02:05;;;;;;;5.63;1.98;;;25.40;45.40;;;;;;6323730;28;20503;-72
2023/05/31 13:05:08;;;;;;;5.97;2.05;;;25.40;45.30;;;;;;6323169;28;20405;-75
2023/05/31 13:08:10;;;;;;;8.95;2.10;;;25.60;45.60;;;;;;6323427;28;20056;-74
2023/05/31 13:11:14;;;;;;;9.25;4.68;;;25.70;44.80;;;;;;6322226;28;20051;-75
2023/05/31 13:14:18;;;;;;;6.47;2.10;;;25.90;44.40;;;;;;6323310;28;20134;-75
2023/05/31 13:17:20;;;;;;;6.10;2.15;;;26.00;44.70;;;;;;6323390;28;20058;-74
2023/05/31 13:20:23;;;;;;;6.33;1.90;;;26.10;45.60;;;;;;6326411;28;20126;-77
2023/05/31 13:23:25;;;;;;;8.73;2.10;;;26.10;43.60;;;;;;6325217;28;20131;-74
2023/05/31 13:26:28;;;;;;;5.07;2.00;;;26.20;44.70;;;;;;6323243;28;20055;-73
2023/05/31 13:29:31;;;;;;;6.82;2.00;;;26.30;43.40;;;;;;6323237;28;20047;-75
2023/05/31 13:32:33;;;;;;;5.75;1.92;;;26.20;43.00;;;;;;6324022;28;20051;-73
2023/05/31 13:35:39;;;;;;;7.50;1.95;;;26.40;42.80;;;;;;6324731;28;20050;-73
2023/05/31 13:38:41;;;;;;;8.30;2.75;;;26.60;42.50;;;;;;6323120;28;20048;-74
2023/05/31 13:41:46;;;;;;;4.88;1.90;;;26.80;42.80;;;;;;6322815;28;20048;-74
2023/05/31 13:44:47;;;;;;;5.70;1.90;;;27.00;42.30;;;;;;6322778;28;20520;-75
2023/05/31 13:47:49;;;;;;;5.22;1.98;;;27.10;42.00;;;;;;6322401;28;20059;-74
2023/05/31 13:50:52;;;;;;;7.53;2.10;;;27.00;42.00;;;;;;6322544;28;20044;-74
2023/05/31 13:53:54;;;;;;;5.20;1.88;;;27.20;41.90;;;;;;6322552;28;20052;-74
2023/05/31 13:56:59;;;;;;;6.30;2.05;;;27.30;42.80;;;;;;6323158;28;20066;-73
2023/05/31 14:00:04;;;;;;;6.30;1.98;;;27.50;42.50;;;;;;6322881;28;20428;-74
2023/05/31 14:03:05;;;;;;;4.75;1.75;;;27.50;41.00;;;;;;6322416;28;20469;-75
2023/05/31 14:06:08;;;;;;;4.38;1.70;;;27.80;40.20;;;;;;6326726;28;20059;-74
2023/05/31 14:09:10;;;;;;;4.20;1.70;;;27.90;40.70;;;;;;6327279;28;20048;-74
2023/05/31 14:12:13;;;;;;;4.88;1.83;;;27.60;40.40;;;;;;6327169;28;20051;-75
2023/05/31 14:15:15;;;;;;;9.02;1.85;;;27.90;40.70;;;;;;6327265;28;20055;-74
2023/05/31 14:18:17;;;;;;;5.47;2.00;;;28.10;40.00;;;;;;6327301;28;20056;-75
2023/05/31 14:21:19;;;;;;;4.57;1.80;;;28.00;40.70;;;;;;6327002;28;20063;-74
2023/05/31 14:24:22;;;;;;;5.18;1.80;;;28.20;40.70;;;;;;6327191;28;20044;-74
2023/05/31 14:27:25;;;;;;;5.13;1.80;;;28.20;40.80;;;;;;6327369;28;20050;-76
2023/05/31 14:30:27;;;;;;;4.82;2.00;;;28.40;40.80;;;;;;6327155;28;20051;-73
2023/05/31 14:33:29;;;;;;;7.17;1.97;;;28.50;41.60;;;;;;6326992;28;20474;-74
2023/05/31 14:36:31;;;;;;;5.13;2.00;;;28.70;41.20;;;;;;6326884;28;20084;-75
2023/05/31 14:39:33;;;;;;;5.82;2.00;;;29.10;40.70;;;;;;6326964;28;20047;-76
2023/05/31 14:42:37;;;;;;;4.85;1.90;;;28.90;39.50;;;;;;6326848;28;20043;-75
2023/05/31 14:45:38;;;;;;;5.25;2.00;;;29.20;40.70;;;;;;6326958;28;20051;-74
2023/05/31 14:48:42;;;;;;;5.65;1.80;;;29.20;40.20;;;;;;6326735;28;20548;-76
2023/05/31 14:51:43;;;;;;;5.57;1.90;;;29.30;39.70;;;;;;6326650;28;20044;-74
2023/05/31 14:54:45;;;;;;;5.00;2.00;;;29.00;39.70;;;;;;6326397;28;20044;-75
2023/05/31 14:57:49;;;;;;;7.43;2.07;;;29.20;40.10;;;;;;6326411;28;20044;-75
2023/05/31 15:00:50;;;;;;;6.13;1.90;;;29.00;38.70;;;;;;6326088;28;20401;-74
2023/05/31 15:03:52;;;;;;;6.65;1.90;;;29.20;38.90;;;;;;6326450;28;20048;-77
2023/05/31 15:06:54;;;;;;;6.30;1.90;;;29.20;38.30;;;;;;6326291;28;20054;-75
2023/05/31 15:09:56;;;;;;;4.85;1.60;;;29.40;39.00;;;;;;6325646;28;20048;-73
2023/05/31 15:12:59;;;;;;;5.00;2.00;;;29.60;38.90;;;;;;6326274;28;20044;-74
2023/05/31 15:16:01;;;;;;;6.63;2.20;;;30.10;38.00;;;;;;6325142;28;20672;-76
2023/05/31 15:19:03;;;;;;;7.85;1.98;;;29.80;38.60;;;;;;6326016;28;20051;-75
2023/05/31 15:22:06;;;;;;;7.30;2.00;;;30.00;39.30;;;;;;6325860;28;20044;-73
2023/05/31 15:25:09;;;;;;;5.63;1.88;;;29.70;37.60;;;;;;6325894;28;20059;-74
2023/05/31 15:28:12;;;;;;;5.45;1.63;;;30.10;38.50;;;;;;6325702;28;20054;-74
2023/05/31 15:31:14;;;;;;;5.28;1.80;;;30.60;39.00;;;;;;6325713;28;20485;-75
2023/05/31 15:34:16;;;;;;;5.85;2.30;;;31.10;38.60;;;;;;6325465;28;20051;-73
2023/05/31 15:37:18;;;;;;;4.73;2.10;;;31.10;39.50;;;;;;6326557;28;20048;-75
2023/05/31 15:40:20;;;;;;;4.77;1.80;;;31.30;37.90;;;;;;6329597;28;20129;-76
2023/05/31 15:43:24;;;;;;;5.00;1.85;;;31.30;38.80;;;;;;6327692;28;20306;-75
2023/05/31 15:46:26;;;;;;;4.88;1.80;;;31.30;37.40;;;;;;6327240;28;20048;-74
2023/05/31 15:49:28;;;;;;;5.25;1.80;;;31.00;38.10;;;;;;6324643;28;20048;-73
2023/05/31 15:52:30;;;;;;;5.88;2.33;;;31.60;37.90;;;;;;6325317;28;20048;-75
2023/05/31 15:55:32;;;;;;;6.28;2.28;;;32.00;37.50;;;;;;6324973;28;20052;-76